createdAt,value
2022-08-03T00:00:34.978Z,7.90
2022-08-03T00:02:36.744Z,10.13
2022-08-03T00:04:38.838Z,9.32
2022-08-03T00:06:40.781Z,10.18
2022-08-03T00:08:42.500Z,13.95
2022-08-03T00:10:44.344Z,13.00
2022-08-03T00:12:46.220Z,10.55
2022-08-03T00:14:47.956Z,14.40
2022-08-03T00:16:49.957Z,7.50
2022-08-03T00:18:52.304Z,9.07
2022-08-03T00:20:54.098Z,9.27
2022-08-03T00:22:56.021Z,11.05
2022-08-03T00:24:57.803Z,12.63
2022-08-03T00:26:59.760Z,9.63
2022-08-03T00:29:01.673Z,10.68
2022-08-03T00:31:03.548Z,9.25
2022-08-03T00:33:05.611Z,9.75
2022-08-03T00:35:14.782Z,9.05
2022-08-03T00:37:40.796Z,11.93
2022-08-03T00:39:43.704Z,24.50
2022-08-03T00:41:45.488Z,13.07
2022-08-03T00:43:47.290Z,16.98
2022-08-03T00:45:49.110Z,18.77
2022-08-03T00:47:53.324Z,19.90
2022-08-03T00:49:55.152Z,14.48
2022-08-03T00:51:56.915Z,8.25
2022-08-03T00:53:58.987Z,9.85
2022-08-03T00:56:00.852Z,14.50
2022-08-03T00:58:03.618Z,10.13
2022-08-03T01:00:07.939Z,8.67
2022-08-03T01:02:09.699Z,7.65
2022-08-03T01:04:11.539Z,8.20
2022-08-03T01:06:19.483Z,10.85
2022-08-03T01:08:46.975Z,8.32
2022-08-03T01:11:10.726Z,10.13
2022-08-03T01:14:00.314Z,8.77
2022-08-03T01:16:15.633Z,7.13
2022-08-03T01:19:02.125Z,7.45
2022-08-03T01:21:10.474Z,6.97
2022-08-03T01:23:42.617Z,8.57
2022-08-03T01:25:55.442Z,10.35
2022-08-03T01:27:57.182Z,12.20
2022-08-03T01:30:05.160Z,14.32
2022-08-03T01:33:00.339Z,12.73
2022-08-03T01:34:50.970Z,7.53
2022-08-03T01:36:56.780Z,5.25
2022-08-03T01:39:01.922Z,6.05
2022-08-03T01:41:07.622Z,11.68
2022-08-03T01:43:14.953Z,14.05
2022-08-03T01:45:38.763Z,10.30
2022-08-03T01:47:42.271Z,10.70
2022-08-03T01:49:45.757Z,8.85
2022-08-03T01:52:02.681Z,8.45
2022-08-03T01:54:08.351Z,12.88
2022-08-03T01:58:14.663Z,8.43
2022-08-03T02:00:16.945Z,7.90
2022-08-03T02:02:32.763Z,7.80
2022-08-03T02:04:38.735Z,8.13
2022-08-03T02:07:01.911Z,8.52
2022-08-03T02:09:06.056Z,7.15
2022-08-03T02:11:08.312Z,6.82
2022-08-03T02:13:10.890Z,8.32
2022-08-03T02:15:15.432Z,8.75
2022-08-03T02:17:18.420Z,8.75
2022-08-03T02:19:42.503Z,10.63
2022-08-03T02:21:56.510Z,11.85
2022-08-03T02:24:04.091Z,10.82
2022-08-03T02:26:09.186Z,9.88
2022-08-03T02:28:16.536Z,10.90
2022-08-03T02:30:19.777Z,9.27
2022-08-03T02:32:28.018Z,9.18
2022-08-03T02:34:31.592Z,7.78
2022-08-03T02:36:38.062Z,11.82
2022-08-03T02:38:42.795Z,43.95
2022-08-03T02:40:46.312Z,16.90
2022-08-03T02:42:51.801Z,6.55
2022-08-03T02:44:57.240Z,6.70
2022-08-03T02:47:09.549Z,7.63
2022-08-03T02:49:35.341Z,7.57
2022-08-03T02:51:36.989Z,6.10
2022-08-03T02:53:40.816Z,9.85
2022-08-03T02:55:45.796Z,5.30
2022-08-03T02:57:50.436Z,5.13
2022-08-03T02:59:53.416Z,7.15
2022-08-03T03:01:55.926Z,6.85
2022-08-03T03:03:58.362Z,6.30
2022-08-03T03:06:01.191Z,7.78
2022-08-03T03:08:18.004Z,9.55
2022-08-03T03:10:24.926Z,8.87
2022-08-03T03:12:27.949Z,6.57
2022-08-03T03:14:33.626Z,11.95
2022-08-03T03:16:36.562Z,7.25
2022-08-03T03:18:39.687Z,7.47
2022-08-03T03:20:41.939Z,6.80
2022-08-03T03:22:45.376Z,7.82
2022-08-03T03:24:47.811Z,11.38
2022-08-03T03:26:50.119Z,7.53
2022-08-03T03:28:52.508Z,12.32
2022-08-03T03:30:54.432Z,9.23
2022-08-03T03:32:58.317Z,8.63
2022-08-03T03:35:00.548Z,7.18
2022-08-03T03:37:02.499Z,10.23
2022-08-03T03:39:15.445Z,12.50
2022-08-03T03:41:17.857Z,9.43
2022-08-03T03:43:23.943Z,7.47
2022-08-03T03:45:26.719Z,9.98
2022-08-03T03:47:32.147Z,10.07
2022-08-03T03:49:34.868Z,8.52
2022-08-03T03:51:36.989Z,8.07
2022-08-03T03:53:38.778Z,6.35
2022-08-03T03:55:57.812Z,6.32
2022-08-03T03:58:03.495Z,5.50
2022-08-03T04:00:05.902Z,8.75
2022-08-03T04:02:09.352Z,7.45
2022-08-03T04:04:11.373Z,6.10
2022-08-03T04:06:13.989Z,9.25
2022-08-03T04:08:18.934Z,9.02
2022-08-03T04:10:23.907Z,11.30
2022-08-03T04:12:28.376Z,14.55
2022-08-03T04:14:34.741Z,12.60
2022-08-03T04:16:43.625Z,16.33
2022-08-03T04:18:52.682Z,19.30
2022-08-03T04:20:55.835Z,18.95
2022-08-03T04:23:00.225Z,19.65
2022-08-03T04:25:05.429Z,19.00
2022-08-03T04:27:11.547Z,21.45
2022-08-03T04:29:14.751Z,22.65
2022-08-03T04:31:18.024Z,15.95
2022-08-03T04:33:21.821Z,16.20
2022-08-03T04:36:02.222Z,13.93
2022-08-03T04:37:53.581Z,14.38
2022-08-03T04:39:59.354Z,14.73
2022-08-03T04:42:08.667Z,13.80
2022-08-03T04:44:13.499Z,15.15
2022-08-03T04:46:16.326Z,13.13
2022-08-03T04:48:19.260Z,17.57
2022-08-03T04:50:22.140Z,14.00
2022-08-03T04:52:24.488Z,13.73
2022-08-03T04:54:26.366Z,12.98
2022-08-03T04:56:28.160Z,11.60
2022-08-03T04:58:29.967Z,13.32
2022-08-03T05:00:32.389Z,9.32
2022-08-03T05:02:34.221Z,10.10
2022-08-03T05:04:36.057Z,10.02
2022-08-03T05:06:47.915Z,10.18
2022-08-03T05:08:50.851Z,10.65
2022-08-03T05:10:52.812Z,11.13
2022-08-03T05:12:54.676Z,11.32
2022-08-03T05:14:56.415Z,10.50
2022-08-03T05:16:58.202Z,10.68
2022-08-03T05:19:00.075Z,13.52
2022-08-03T05:21:02.047Z,15.27
2022-08-03T05:23:03.894Z,11.43
2022-08-03T05:25:05.968Z,10.30
2022-08-03T05:27:07.701Z,14.20
2022-08-03T05:29:09.501Z,10.70
2022-08-03T05:31:11.552Z,10.05
2022-08-03T05:33:13.314Z,11.35
2022-08-03T05:35:57.883Z,8.90
2022-08-03T05:37:37.076Z,11.70
2022-08-03T05:39:38.909Z,12.85
2022-08-03T05:41:40.678Z,12.95
2022-08-03T05:43:42.503Z,10.60
2022-08-03T05:45:44.382Z,11.88
2022-08-03T05:47:46.338Z,11.43
2022-08-03T05:49:51.742Z,13.13
2022-08-03T05:52:00.496Z,15.80
2022-08-03T05:54:13.831Z,11.02
2022-08-03T05:56:16.791Z,9.63
2022-08-03T05:58:18.695Z,12.45
2022-08-03T06:00:20.484Z,10.88
2022-08-03T06:02:24.106Z,9.50
2022-08-03T06:04:25.998Z,16.23
2022-08-03T06:06:32.093Z,11.02
2022-08-03T06:08:34.916Z,13.75
2022-08-03T06:10:38.273Z,13.13
2022-08-03T06:14:42.294Z,13.50
2022-08-03T06:16:44.110Z,14.85
2022-08-03T06:18:45.950Z,15.45
2022-08-03T06:20:49.398Z,12.48
2022-08-03T06:23:00.455Z,14.30
2022-08-03T06:25:04.009Z,13.20
2022-08-03T06:27:07.010Z,11.57
2022-08-03T06:29:08.853Z,16.35
2022-08-03T06:31:11.972Z,14.10
2022-08-03T06:33:13.770Z,16.35
2022-08-03T06:35:15.533Z,12.60
2022-08-03T06:37:17.353Z,9.88
2022-08-03T06:39:19.326Z,11.55
2022-08-03T06:41:21.047Z,8.18
2022-08-03T06:43:23.033Z,10.77
2022-08-03T06:45:25.183Z,13.25
2022-08-03T06:47:33.668Z,9.05
2022-08-03T06:49:35.662Z,9.77
2022-08-03T06:52:03.051Z,12.82
2022-08-03T06:53:59.542Z,13.05
2022-08-03T06:56:01.404Z,7.32
2022-08-03T06:58:03.728Z,8.18
2022-08-03T07:00:11.861Z,9.65
2022-08-03T07:02:19.061Z,9.43
2022-08-03T07:04:21.449Z,9.60
2022-08-03T07:06:23.186Z,8.20
2022-08-03T07:08:33.725Z,8.82
2022-08-03T07:10:36.557Z,10.05
2022-08-03T07:12:55.606Z,5.45
2022-08-03T07:15:02.258Z,6.78
2022-08-03T07:17:11.461Z,9.05
2022-08-03T07:19:13.667Z,7.85
2022-08-03T07:21:15.560Z,7.72
2022-08-03T07:23:18.927Z,6.35
2022-08-03T07:25:21.297Z,7.65
2022-08-03T07:27:23.184Z,7.15
2022-08-03T07:29:25.239Z,7.60
2022-08-03T07:31:27.267Z,7.63
2022-08-03T07:33:36.387Z,11.70
2022-08-03T07:35:38.882Z,10.93
2022-08-03T07:37:40.622Z,6.65
2022-08-03T07:39:55.928Z,7.55
2022-08-03T07:41:57.639Z,9.05
2022-08-03T07:43:59.376Z,6.57
2022-08-03T07:46:03.062Z,6.97
2022-08-03T07:48:10.109Z,8.63
2022-08-03T07:50:13.839Z,5.78
2022-08-03T07:52:15.839Z,11.18
2022-08-03T07:54:17.735Z,5.30
2022-08-03T07:56:19.478Z,6.63
2022-08-03T07:58:24.183Z,6.43
2022-08-03T08:00:26.606Z,7.03
2022-08-03T08:02:28.357Z,7.32
2022-08-03T08:04:30.167Z,4.57
2022-08-03T08:06:32.152Z,4.43
2022-08-03T08:08:33.903Z,9.13
2022-08-03T08:10:36.001Z,4.90
2022-08-03T08:12:39.250Z,9.35
2022-08-03T08:16:42.686Z,6.10
2022-08-03T08:18:44.598Z,5.35
2022-08-03T08:20:46.422Z,4.57
2022-08-03T08:22:48.400Z,6.60
2022-08-03T08:24:52.177Z,6.05
2022-08-03T08:26:54.213Z,7.57
2022-08-03T08:28:56.210Z,4.95
2022-08-03T08:30:57.998Z,5.25
2022-08-03T08:32:59.975Z,3.63
2022-08-03T08:35:02.023Z,5.00
2022-08-03T08:37:04.008Z,5.63
2022-08-03T08:39:05.788Z,3.35
2022-08-03T08:41:08.213Z,5.68
2022-08-03T08:43:10.337Z,6.63
2022-08-03T08:45:12.112Z,4.88
2022-08-03T08:47:14.644Z,6.15
2022-08-03T08:49:22.977Z,6.38
2022-08-03T08:51:54.827Z,6.05
2022-08-03T08:53:53.597Z,6.30
2022-08-03T08:56:00.685Z,5.28
2022-08-03T08:58:05.872Z,6.22
2022-08-03T09:00:10.562Z,4.40
2022-08-03T09:02:12.573Z,6.55
2022-08-03T09:04:14.459Z,5.55
2022-08-03T09:06:16.683Z,3.90
2022-08-03T09:08:19.115Z,6.40
2022-08-03T09:10:21.077Z,7.90
2022-08-03T09:12:40.876Z,4.47
2022-08-03T09:15:00.769Z,6.85
2022-08-03T09:17:05.593Z,4.20
2022-08-03T09:19:13.754Z,4.75
2022-08-03T09:21:33.291Z,8.25
2022-08-03T09:24:02.162Z,4.15
2022-08-03T09:26:05.679Z,6.03
2022-08-03T09:28:52.706Z,4.15
2022-08-03T09:30:39.972Z,5.65
2022-08-03T09:32:41.945Z,3.60
2022-08-03T09:34:43.689Z,6.40
2022-08-03T09:36:47.328Z,3.78
2022-08-03T09:39:13.432Z,3.78
2022-08-03T09:41:18.889Z,5.32
2022-08-03T09:43:21.484Z,5.50
2022-08-03T09:45:27.315Z,2.63
2022-08-03T09:47:31.157Z,8.95
2022-08-03T09:49:33.197Z,5.35
2022-08-03T09:52:32.074Z,4.32
2022-08-03T09:53:58.819Z,4.68
2022-08-03T09:56:35.217Z,5.57
2022-08-03T09:58:26.899Z,4.72
2022-08-03T10:00:28.809Z,4.30
2022-08-03T10:02:30.817Z,4.00
2022-08-03T10:04:32.831Z,3.63
2022-08-03T10:06:34.555Z,5.32
2022-08-03T10:08:36.317Z,4.40
2022-08-03T10:10:45.395Z,3.65
2022-08-03T10:12:47.194Z,4.18
2022-08-03T10:14:49.447Z,3.65
2022-08-03T10:16:51.197Z,6.25
2022-08-03T10:18:52.933Z,2.80
2022-08-03T10:21:03.336Z,6.47
2022-08-03T10:23:05.731Z,2.83
2022-08-03T10:25:09.813Z,2.75
2022-08-03T10:27:13.517Z,3.92
2022-08-03T10:29:22.729Z,4.90
2022-08-03T10:31:25.373Z,5.53
2022-08-03T10:33:51.060Z,7.03
2022-08-03T10:35:57.420Z,3.65
2022-08-03T10:38:05.984Z,6.97
2022-08-03T10:40:10.052Z,3.20
2022-08-03T10:42:14.696Z,3.20
2022-08-03T10:44:21.554Z,4.50
2022-08-03T10:46:23.709Z,3.70
2022-08-03T10:48:26.221Z,4.00
2022-08-03T10:50:28.687Z,4.07
2022-08-03T10:52:33.710Z,3.87
2022-08-03T10:54:44.650Z,4.07
2022-08-03T10:56:49.774Z,4.43
2022-08-03T10:58:57.938Z,2.58
2022-08-03T11:01:00.587Z,4.05
2022-08-03T11:03:11.648Z,2.78
2022-08-03T11:05:27.837Z,4.68
2022-08-03T11:07:29.864Z,7.38
2022-08-03T11:09:42.576Z,3.75
2022-08-03T11:11:47.140Z,5.22
2022-08-03T11:14:02.216Z,2.80
2022-08-03T11:16:21.994Z,2.75
2022-08-03T11:18:26.831Z,6.13
2022-08-03T11:20:52.198Z,3.03
2022-08-03T11:22:54.077Z,4.32
2022-08-03T11:24:55.856Z,5.35
2022-08-03T11:27:15.979Z,5.45
2022-08-03T11:29:31.077Z,3.42
2022-08-03T11:31:49.160Z,3.97
2022-08-03T11:34:09.489Z,3.78
2022-08-03T11:36:11.516Z,3.40
2022-08-03T11:38:13.454Z,4.63
2022-08-03T11:40:32.959Z,3.72
2022-08-03T11:42:34.662Z,3.33
2022-08-03T11:44:42.874Z,4.53
2022-08-03T11:46:49.523Z,3.67
2022-08-03T11:48:51.353Z,2.63
2022-08-03T11:50:53.211Z,3.55
2022-08-03T11:52:55.114Z,4.35
2022-08-03T11:54:57.513Z,4.15
2022-08-03T11:56:59.756Z,3.00
2022-08-03T11:59:18.662Z,3.20
2022-08-03T12:01:24.908Z,5.75
2022-08-03T12:03:33.189Z,3.40
2022-08-03T12:05:52.917Z,3.80
2022-08-03T12:08:03.887Z,3.17
2022-08-03T12:10:13.019Z,4.40
2022-08-03T12:12:16.547Z,4.68
2022-08-03T12:14:49.275Z,3.90
2022-08-03T12:16:47.761Z,3.67
2022-08-03T12:19:16.129Z,4.47
2022-08-03T12:21:17.954Z,4.95
2022-08-03T12:23:20.303Z,6.30
2022-08-03T12:25:38.748Z,7.55
2022-08-03T12:27:41.869Z,4.28
2022-08-03T12:29:43.767Z,5.32
2022-08-03T12:32:00.589Z,6.60
2022-08-03T12:34:05.863Z,3.47
2022-08-03T12:36:10.930Z,3.42
2022-08-03T12:38:13.064Z,4.70
2022-08-03T12:40:19.292Z,4.35
2022-08-03T12:42:29.941Z,6.10
2022-08-03T12:44:33.590Z,4.55
2022-08-03T12:46:45.360Z,3.65
2022-08-03T12:49:06.753Z,3.55
2022-08-03T12:51:10.644Z,6.50
2022-08-03T12:53:12.376Z,5.63
2022-08-03T12:55:20.361Z,9.68
2022-08-03T12:57:22.231Z,7.90
2022-08-03T12:59:25.623Z,5.93
2022-08-03T13:01:37.650Z,3.72
2022-08-03T13:03:45.779Z,8.75
2022-08-03T13:05:51.680Z,4.90
2022-08-03T13:07:53.508Z,3.30
2022-08-03T13:09:56.615Z,3.70
2022-08-03T13:12:13.389Z,4.38
2022-08-03T13:14:16.780Z,5.00
2022-08-03T13:16:22.947Z,4.07
2022-08-03T13:18:24.976Z,5.85
2022-08-03T13:20:26.766Z,5.15
2022-08-03T13:22:28.534Z,4.35
2022-08-03T13:24:31.694Z,4.53
2022-08-03T13:26:33.750Z,4.57
2022-08-03T13:28:35.587Z,3.10
2022-08-03T13:30:38.057Z,3.22
2022-08-03T13:32:40.193Z,5.03
2022-08-03T13:34:42.405Z,7.22
2022-08-03T13:37:07.959Z,4.97
2022-08-03T13:39:05.948Z,4.50
2022-08-03T13:41:11.041Z,9.40
2022-08-03T13:43:12.764Z,5.03
2022-08-03T13:45:14.603Z,3.15
2022-08-03T13:47:16.423Z,3.63
2022-08-03T13:49:18.270Z,5.15
2022-08-03T13:51:22.602Z,5.07
2022-08-03T13:53:24.733Z,6.95
2022-08-03T13:55:26.749Z,5.13
2022-08-03T13:58:04.379Z,4.05
2022-08-03T13:59:50.800Z,5.75
2022-08-03T14:01:55.712Z,3.78
2022-08-03T14:03:57.739Z,3.50
2022-08-03T14:05:59.500Z,3.67
2022-08-03T14:08:04.821Z,5.95
2022-08-03T14:10:07.288Z,4.28
2022-08-03T14:12:10.352Z,10.07
2022-08-03T14:14:13.325Z,5.63
2022-08-03T14:16:17.016Z,5.68
2022-08-03T14:18:28.839Z,3.65
2022-08-03T14:20:38.926Z,4.18
2022-08-03T14:22:50.798Z,5.93
2022-08-03T14:24:52.787Z,4.45
2022-08-03T14:27:00.153Z,5.60
2022-08-03T14:29:08.805Z,5.40
2022-08-03T14:33:33.029Z,5.50
2022-08-03T14:35:34.841Z,3.58
2022-08-03T14:37:36.645Z,7.13
2022-08-03T14:42:00.212Z,6.43
2022-08-03T14:44:02.553Z,10.02
2022-08-03T14:46:04.461Z,5.97
2022-08-03T14:50:29.094Z,5.53
2022-08-03T14:50:36.250Z,5.95
2022-08-03T14:52:42.762Z,6.10
2022-08-03T14:54:45.583Z,6.63
2022-08-03T14:56:47.354Z,4.80
2022-08-03T14:58:49.117Z,9.73
2022-08-03T15:00:54.137Z,5.43
2022-08-03T15:02:55.911Z,4.30
2022-08-03T15:04:57.816Z,6.93
2022-08-03T15:06:59.702Z,6.15
2022-08-03T15:09:21.501Z,6.30
2022-08-03T15:11:23.155Z,5.75
2022-08-03T15:13:25.032Z,4.30
2022-08-03T15:15:26.754Z,5.72
2022-08-03T15:17:28.651Z,8.50
2022-08-03T15:20:00.265Z,4.45
2022-08-03T15:21:52.388Z,6.32
2022-08-03T15:23:54.122Z,7.57
2022-08-03T15:26:06.471Z,5.47
2022-08-03T15:28:18.096Z,6.25
2022-08-03T15:30:19.906Z,3.95
2022-08-03T15:32:21.780Z,5.78
2022-08-03T15:34:23.502Z,9.30
2022-08-03T15:36:25.241Z,7.93
2022-08-03T15:38:27.067Z,4.53
2022-08-03T15:40:28.913Z,4.60
2022-08-03T15:42:32.914Z,5.03
2022-08-03T15:44:34.753Z,7.55
2022-08-03T15:46:36.802Z,6.40
2022-08-03T15:48:39.606Z,6.63
2022-08-03T15:50:41.499Z,6.35
2022-08-03T15:52:45.529Z,4.57
2022-08-03T15:54:47.570Z,7.13
2022-08-03T15:56:49.399Z,4.57
2022-08-03T15:59:03.693Z,5.57
2022-08-03T16:01:17.723Z,4.28
2022-08-03T16:03:21.643Z,3.60
2022-08-03T16:05:23.535Z,4.57
2022-08-03T16:07:25.697Z,5.10
2022-08-03T16:09:43.224Z,7.07
2022-08-03T16:11:45.528Z,5.28
2022-08-03T16:14:13.726Z,5.72
2022-08-03T16:16:09.427Z,6.10
2022-08-03T16:18:11.168Z,9.93
2022-08-03T16:20:29.257Z,11.35
2022-08-03T16:22:40.748Z,6.53
2022-08-03T16:24:45.187Z,5.97
2022-08-03T16:26:47.442Z,7.25
2022-08-03T16:28:49.308Z,5.05
2022-08-03T16:30:51.076Z,4.75
2022-08-03T16:32:52.920Z,3.92
2022-08-03T16:34:54.833Z,7.90
2022-08-03T16:36:56.611Z,4.30
2022-08-03T16:38:58.678Z,5.97
2022-08-03T16:41:00.536Z,7.93
2022-08-03T16:43:10.016Z,8.00
2022-08-03T16:45:20.813Z,5.25
2022-08-03T16:47:22.883Z,4.88
2022-08-03T16:49:53.063Z,6.60
2022-08-03T16:51:50.350Z,5.68
2022-08-03T16:54:07.195Z,10.07
2022-08-03T16:56:10.674Z,7.65
2022-08-03T16:58:13.031Z,9.68
2022-08-03T17:00:33.574Z,16.33
2022-08-03T17:02:36.734Z,9.85
2022-08-03T17:04:40.250Z,14.60
2022-08-03T17:06:45.069Z,5.03
2022-08-03T17:08:52.344Z,7.38
2022-08-03T17:10:57.357Z,6.22
2022-08-03T17:12:59.071Z,8.40
2022-08-03T17:15:01.331Z,5.15
2022-08-03T17:17:08.369Z,7.73
2022-08-03T17:19:18.478Z,5.80
2022-08-03T17:21:26.477Z,6.28
2022-08-03T17:23:52.162Z,9.70
2022-08-03T17:26:02.263Z,9.57
2022-08-03T17:28:48.658Z,12.52
2022-08-03T17:30:28.470Z,8.90
2022-08-03T17:32:42.420Z,9.98
2022-08-03T17:34:46.681Z,7.10
2022-08-03T17:37:05.359Z,17.73
2022-08-03T17:39:07.469Z,11.40
2022-08-03T17:44:14.207Z,9.23
2022-08-03T17:45:42.286Z,14.73
2022-08-03T17:47:57.493Z,12.02
2022-08-03T17:49:59.943Z,8.85
2022-08-03T17:52:04.774Z,7.10
2022-08-03T17:54:30.079Z,14.73
2022-08-03T17:56:57.261Z,10.45
2022-08-03T17:59:52.110Z,12.00
2022-08-03T18:02:29.858Z,14.80
2022-08-03T18:04:38.237Z,16.25
2022-08-03T18:06:55.800Z,11.70
2022-08-03T18:08:59.959Z,13.77
2022-08-03T18:13:58.723Z,12.15
2022-08-03T18:16:02.494Z,9.50
2022-08-03T18:18:10.278Z,13.35
2022-08-03T18:20:34.603Z,11.00
2022-08-03T18:22:34.894Z,12.77
2022-08-03T18:24:37.727Z,14.13
2022-08-03T18:26:42.608Z,17.35
2022-08-03T18:28:53.108Z,14.90
2022-08-03T18:30:55.402Z,11.05
2022-08-03T18:33:01.150Z,18.73
2022-08-03T18:35:19.962Z,11.77
2022-08-03T18:37:26.622Z,13.20
2022-08-03T18:39:28.817Z,11.15
2022-08-03T18:41:34.566Z,13.50
2022-08-03T18:43:46.629Z,18.05
2022-08-03T18:45:57.734Z,13.77
2022-08-03T18:48:30.021Z,15.63
2022-08-03T18:50:39.051Z,11.63
2022-08-03T18:52:52.920Z,12.82
2022-08-03T18:55:33.404Z,13.32
2022-08-03T18:57:47.281Z,13.52
2022-08-03T19:00:24.231Z,15.82
2022-08-03T19:02:41.721Z,13.68
2022-08-03T19:04:54.168Z,13.82
2022-08-03T19:07:03.135Z,13.43
2022-08-03T19:09:06.582Z,18.17
2022-08-03T19:11:28.175Z,12.88
2022-08-03T19:13:55.753Z,16.17
2022-08-03T19:16:02.704Z,20.35
2022-08-03T19:18:10.461Z,16.15
2022-08-03T19:20:12.975Z,16.98
2022-08-03T19:22:15.941Z,12.00
2022-08-03T19:24:21.988Z,17.33
2022-08-03T19:26:30.856Z,16.25
2022-08-03T19:28:34.891Z,18.20
2022-08-03T19:30:39.429Z,17.80
2022-08-03T19:32:48.182Z,18.45
2022-08-03T19:34:51.509Z,25.02
2022-08-03T19:36:55.240Z,17.23
2022-08-03T19:38:59.658Z,14.18
2022-08-03T19:41:04.261Z,15.23
2022-08-03T19:43:20.693Z,14.45
2022-08-03T19:46:05.217Z,14.77
2022-08-03T19:47:56.390Z,16.65
2022-08-03T19:50:13.968Z,16.08
2022-08-03T19:52:20.566Z,17.17
2022-08-03T19:54:32.124Z,15.57
2022-08-03T19:56:34.757Z,26.52
2022-08-03T19:58:37.528Z,25.92
2022-08-03T20:00:40.792Z,31.20
2022-08-03T20:02:50.995Z,24.75
2022-08-03T20:04:53.485Z,21.48
2022-08-03T20:06:58.105Z,18.10
2022-08-03T20:09:00.091Z,18.85
2022-08-03T20:11:02.343Z,15.55
2022-08-03T20:13:08.014Z,15.13
2022-08-03T20:15:10.088Z,15.07
2022-08-03T20:17:12.308Z,15.75
2022-08-03T20:19:22.819Z,15.45
2022-08-03T20:21:27.640Z,18.55
2022-08-03T20:23:38.095Z,17.85
2022-08-03T20:26:00.636Z,17.80
2022-08-03T20:28:14.021Z,16.55
2022-08-03T20:30:16.666Z,17.85
2022-08-03T20:32:24.694Z,17.08
2022-08-03T20:34:26.763Z,18.45
2022-08-03T20:36:29.027Z,13.02
2022-08-03T20:38:32.226Z,16.02
2022-08-03T20:40:45.803Z,13.70
2022-08-03T20:42:47.717Z,14.95
2022-08-03T20:45:04.482Z,15.20
2022-08-03T20:47:10.532Z,20.08
2022-08-03T20:51:19.597Z,16.52
2022-08-03T20:53:57.442Z,18.02
2022-08-03T20:55:53.763Z,16.92
2022-08-03T20:58:04.912Z,16.25
2022-08-03T21:00:08.303Z,17.92
2022-08-03T21:02:13.773Z,14.95
2022-08-03T21:04:22.043Z,18.33
2022-08-03T21:06:28.853Z,17.73
2022-08-03T21:08:31.299Z,16.88
2022-08-03T21:10:37.925Z,18.30
2022-08-03T21:12:48.132Z,18.38
2022-08-03T21:13:03.947Z,14.60
2022-08-03T21:15:01.699Z,14.77
2022-08-03T21:17:14.017Z,17.88
2022-08-03T21:19:22.177Z,17.42
2022-08-03T21:21:24.432Z,18.08
2022-08-03T21:23:45.392Z,15.93
2022-08-03T21:25:51.722Z,17.13
2022-08-03T21:29:55.606Z,22.77
2022-08-03T21:31:59.430Z,19.13
2022-08-03T21:34:04.860Z,16.73
2022-08-03T21:36:07.346Z,21.08
2022-08-03T21:38:09.271Z,15.63
2022-08-03T21:40:13.156Z,15.85
2022-08-03T21:42:14.890Z,18.67
2022-08-03T21:44:17.914Z,17.52
2022-08-03T21:46:33.141Z,17.08
2022-08-03T21:48:38.525Z,16.00
2022-08-03T21:50:42.320Z,17.00
2022-08-03T21:52:46.379Z,15.38
2022-08-03T21:54:49.940Z,15.48
2022-08-03T21:59:06.138Z,16.63
2022-08-03T22:01:09.508Z,15.40
2022-08-03T22:03:17.374Z,15.63
2022-08-03T22:05:28.975Z,15.73
2022-08-03T22:07:42.532Z,14.88
2022-08-03T22:09:51.045Z,17.08
2022-08-03T22:11:53.637Z,18.40
2022-08-03T22:13:55.348Z,15.68
2022-08-03T22:15:57.617Z,20.55
2022-08-03T22:17:59.892Z,15.80
2022-08-03T22:20:02.178Z,17.20
2022-08-03T22:22:04.708Z,16.98
2022-08-03T22:24:07.395Z,16.25
2022-08-03T22:26:15.290Z,17.67
2022-08-03T22:28:17.091Z,18.55
2022-08-03T22:30:19.873Z,16.95
2022-08-03T22:32:21.719Z,21.07
2022-08-03T22:34:26.275Z,18.60
2022-08-03T22:36:30.163Z,15.23
2022-08-03T22:38:32.808Z,17.70
2022-08-03T22:40:34.720Z,15.97
2022-08-03T22:42:37.350Z,17.20
2022-08-03T22:44:40.347Z,16.95
2022-08-03T22:46:42.707Z,18.52
2022-08-03T22:48:46.746Z,17.17
2022-08-03T22:50:48.941Z,16.45
2022-08-03T22:52:51.187Z,20.75
2022-08-03T22:54:55.566Z,18.73
2022-08-03T22:56:58.454Z,19.88
2022-08-03T22:59:00.501Z,19.85
2022-08-03T23:01:08.088Z,20.42
2022-08-03T23:03:10.538Z,17.40
2022-08-03T23:06:01.980Z,19.70
2022-08-03T23:07:49.609Z,17.33
2022-08-03T23:09:51.893Z,17.98
2022-08-03T23:11:55.757Z,16.63
2022-08-03T23:13:59.762Z,16.85
2022-08-03T23:16:04.651Z,20.45
2022-08-03T23:18:07.557Z,18.88
2022-08-03T23:20:09.803Z,19.10
2022-08-03T23:22:17.096Z,16.08
2022-08-03T23:24:36.333Z,20.23
2022-08-03T23:26:38.545Z,18.70
2022-08-03T23:28:45.424Z,18.63
2022-08-03T23:30:50.156Z,16.30
2022-08-03T23:32:54.802Z,19.23
2022-08-03T23:35:00.826Z,17.35
2022-08-03T23:37:05.596Z,16.17
2022-08-03T23:39:08.704Z,19.13
2022-08-03T23:41:10.920Z,16.63
2022-08-03T23:43:18.413Z,19.85
2022-08-03T23:45:37.966Z,17.15
2022-08-03T23:47:46.999Z,18.83
2022-08-03T23:49:49.646Z,20.00
2022-08-03T23:52:29.067Z,20.20
2022-08-03T23:55:12.349Z,18.50
2022-08-03T23:57:52.560Z,15.55
